Time,TemperatureF,DewpointF,PressureIn,WindDirection,WindDirectionDegrees,WindSpeedMPH,WindSpeedGustMPH,Humidity,HourlyPrecipIn,Conditions,Clouds,dailyrainin,SolarRadiationWatts/m^2,SoftwareType,DateUTC
2013-05-13 00:10:00,36.2,28.0,29.75,NW,315,10.0,12.0,72,0.00,,,0.00,0,weatherlink.com 1.10,2013-05-13 04:10:00,
2013-05-13 00:25:00,35.7,29.0,29.76,SSE,155,0.0,11.0,75,0.00,,,0.00,0,weatherlink.com 1.10,2013-05-13 04:25:00,
2013-05-13 00:40:00,35.4,28.0,29.75,NW,309,5.0,20.0,75,0.00,,,0.00,0,weatherlink.com 1.10,2013-05-13 04:40:00,
2013-05-13 00:55:00,35.2,28.0,29.76,SSW,194,9.0,15.0,75,0.00,,,0.00,0,weatherlink.com 1.10,2013-05-13 04:55:00,
2013-05-13 01:10:00,35.2,28.0,29.76,NW,309,8.0,15.0,75,0.00,,,0.00,0,weatherlink.com 1.10,2013-05-13 05:10:00,
2013-05-13 01:25:00,35.3,28.0,29.76,NNW,348,4.0,26.0,76,0.00,,,0.00,0,weatherlink.com 1.10,2013-05-13 05:25:00,
2013-05-13 01:40:00,35.0,28.0,29.77,NNW,331,9.0,14.0,76,0.00,,,0.00,0,weatherlink.com 1.10,2013-05-13 05:40:00,
2013-05-13 01:55:00,34.6,28.0,29.76,North,355,14.0,15.0,77,0.00,,,0.00,0,weatherlink.com 1.10,2013-05-13 05:55:00,
2013-05-13 02:10:00,34.4,28.0,29.77,South,171,11.0,21.0,78,0.00,,,0.00,0,weatherlink.com 1.10,2013-05-13 06:10:00,
2013-05-13 02:25:00,34.2,27.0,29.76,SW,221,8.0,19.0,74,0.00,,,0.00,0,weatherlink.com 1.10,2013-05-13 06:25:00,
2013-05-13 02:40:00,33.9,26.0,29.77,NW,304,3.0,23.0,74,0.00,,,0.00,0,weatherlink.com 1.10,2013-05-13 06:40:00,
2013-05-13 02:55:00,33.7,26.0,29.76,East,94,6.0,23.0,74,0.00,,,0.00,0,weatherlink.com 1.10,2013-05-13 06:55:00,
2013-05-13 03:10:00,33.7,26.0,29.76,NW,307,0.0,19.0,74,0.00,,,0.00,0,weatherlink.com 1.10,2013-05-13 07:10:00,
2013-05-13 03:25:00,33.3,26.0,29.76,West,274,6.0,21.0,74,0.00,,,0.00,0,weatherlink.com 1.10,2013-05-13 07:25:00,
2013-05-13 03:41:00,32.9,25.0,29.76,NW,306,16.0,19.0,74,0.00,,,0.00,0,weatherlink.com 1.10,2013-05-13 07:41:00,
2013-05-13 03:56:00,32.8,25.0,29.75,WNW,292,4.0,19.0,74,0.00,,,0.00,0,weatherlink.com 1.10,2013-05-13 07:56:00,
2013-05-13 04:11:00,32.8,25.0,29.75,WNW,300,3.0,24.0,74,0.00,,,0.00,0,weatherlink.com 1.10,2013-05-13 08:11:00,
2013-05-13 04:26:00,32.8,25.0,29.75,SSE,148,5.0,27.0,74,0.00,,,0.00,0,weatherlink.com 1.10,2013-05-13 08:26:00,
2013-05-13 04:41:00,32.9,26.0,29.75,SSW,209,9.0,13.0,75,0.00,,,0.00,0,weatherlink.com 1.10,2013-05-13 08:41:00,
2013-05-13 04:56:00,33.0,26.0,29.76,WNW,297,4.0,21.0,76,0.00,,,0.00,0,weatherlink.com 1.10,2013-05-13 08:56:00,
2013-05-13 05:11:00,33.0,26.0,29.76,NNW,333,6.0,15.0,75,0.00,,,0.00,0,weatherlink.com 1.10,2013-05-13 09:11:00,
2013-05-13 05:26:00,32.9,26.0,29.77,SSE,149,1.0,26.0,75,0.00,,,0.00,0,weatherlink.com 1.10,2013-05-13 09:26:00,
2013-05-13 05:41:00,32.9,25.0,29.77,NW,319,5.0,12.0,74,0.00,,,0.00,9,weatherlink.com 1.10,2013-05-13 09:41:00,
2013-05-13 05:56:00,33.0,26.0,29.77,NW,317,10.0,14.0,74,0.00,,,0.00,26,weatherlink.com 1.10,2013-05-13 09:56:00,
2013-05-13 06:11:00,33.3,26.0,29.78,SSW,198,2.0,15.0,74,0.00,,,0.00,56,weatherlink.com 1.10,2013-05-13 10:11:00,
2013-05-13 06:25:00,33.4,26.0,29.79,South,176,2.0,16.0,74,0.00,,,0.00,53,weatherlink.com 1.10,2013-05-13 10:25:00,
2013-05-13 06:41:00,33.4,26.0,29.80,SE,143,1.0,16.0,73,0.00,,,0.00,123,weatherlink.com 1.10,2013-05-13 10:41:00,
2013-05-13 06:56:00,33.6,25.0,29.80,West,273,2.0,19.0,72,0.00,,,0.00,62,weatherlink.com 1.10,2013-05-13 10:56:00,
2013-05-13 07:11:00,35.0,28.0,29.81,SSW,192,1.0,11.0,74,0.00,,,0.00,394,weatherlink.com 1.10,2013-05-13 11:11:00,
2013-05-13 07:26:00,35.0,26.0,29.82,WNW,300,3.0,11.0,70,0.00,,,0.00,274,weatherlink.com 1.10,2013-05-13 11:26:00,
2013-05-13 07:41:00,34.9,25.0,29.82,South,190,4.0,11.0,68,0.00,,,0.00,506,weatherlink.com 1.10,2013-05-13 11:41:00,
2013-05-13 07:56:00,35.3,25.0,29.83,WNW,303,4.0,13.0,67,0.00,,,0.00,253,weatherlink.com 1.10,2013-05-13 11:56:00,
2013-05-13 08:12:00,35.3,25.0,29.84,NW,317,6.0,21.0,66,0.00,,,0.00,276,weatherlink.com 1.10,2013-05-13 12:12:00,
2013-05-13 08:27:00,34.4,25.0,29.85,WNW,298,2.0,11.0,68,0.00,,,0.00,160,weatherlink.com 1.10,2013-05-13 12:27:00,
2013-05-13 08:42:00,34.3,25.0,29.86,North,355,1.0,14.0,70,0.00,,,0.00,162,weatherlink.com 1.10,2013-05-13 12:42:00,
2013-05-13 08:57:00,34.4,26.0,29.86,NW,312,5.0,11.0,70,0.00,,,0.00,276,weatherlink.com 1.10,2013-05-13 12:57:00,
2013-05-13 09:12:00,35.5,25.0,29.86,NW,304,0.0,19.0,67,0.00,,,0.00,352,weatherlink.com 1.10,2013-05-13 13:12:00,
2013-05-13 09:27:00,35.7,25.0,29.87,West,278,0.0,12.0,66,0.00,,,0.00,243,weatherlink.com 1.10,2013-05-13 13:27:00,
2013-05-13 09:42:00,34.9,26.0,29.87,WNW,301,6.0,16.0,69,0.00,,,0.00,283,weatherlink.com 1.10,2013-05-13 13:42:00,
2013-05-13 09:58:00,36.1,25.0,29.88,SW,217,6.0,21.0,65,0.00,,,0.00,306,weatherlink.com 1.10,2013-05-13 13:58:00,
2013-05-13 10:13:00,35.4,26.0,29.90,SSW,200,5.0,20.0,69,0.00,,,0.00,246,weatherlink.com 1.10,2013-05-13 14:13:00,
2013-05-13 10:28:00,34.9,26.0,29.90,WNW,302,0.0,16.0,69,0.00,,,0.00,183,weatherlink.com 1.10,2013-05-13 14:28:00,
2013-05-13 10:43:00,35.7,26.0,29.91,WNW,294,3.0,8.0,69,0.00,,,0.00,244,weatherlink.com 1.10,2013-05-13 14:43:00,
2013-05-13 10:58:00,36.2,26.0,29.91,NNW,329,2.0,11.0,67,0.00,,,0.00,301,weatherlink.com 1.10,2013-05-13 14:58:00,
2013-05-13 11:13:00,36.2,26.0,29.92,NNW,341,4.0,19.0,66,0.00,,,0.00,322,weatherlink.com 1.10,2013-05-13 15:13:00,
2013-05-13 11:29:00,36.4,26.0,29.92,SSE,149,8.0,12.0,65,0.00,,,0.00,469,weatherlink.com 1.10,2013-05-13 15:29:00,
2013-05-13 11:44:00,36.8,26.0,29.92,ENE,68,1.0,14.0,65,0.00,,,0.00,410,weatherlink.com 1.10,2013-05-13 15:44:00,
2013-05-13 11:59:00,37.7,26.0,29.93,South,178,7.0,18.0,64,0.00,,,0.00,714,weatherlink.com 1.10,2013-05-13 15:59:00,
2013-05-13 12:14:00,38.8,28.0,29.93,South,185,2.0,14.0,65,0.00,,,0.00,353,weatherlink.com 1.10,2013-05-13 16:14:00,
2013-05-13 12:29:00,39.6,27.0,29.93,SSW,201,3.0,11.0,60,0.00,,,0.00,666,weatherlink.com 1.10,2013-05-13 16:29:00,
2013-05-13 12:44:00,39.2,26.0,29.93,SW,222,2.0,14.0,60,0.00,,,0.00,446,weatherlink.com 1.10,2013-05-13 16:44:00,
2013-05-13 13:02:00,39.1,27.0,29.94,NW,312,6.0,16.0,61,0.00,,,0.00,476,weatherlink.com 1.10,2013-05-13 17:02:00,
2013-05-13 13:14:00,38.7,27.0,29.94,WNW,298,0.0,12.0,62,0.00,,,0.00,512,weatherlink.com 1.10,2013-05-13 17:14:00,
2013-05-13 13:32:00,40.2,26.0,29.94,South,170,10.0,13.0,58,0.00,,,0.00,621,weatherlink.com 1.10,2013-05-13 17:32:00,
2013-05-13 13:47:00,40.8,27.0,29.94,West,275,1.0,15.0,58,0.00,,,0.00,487,weatherlink.com 1.10,2013-05-13 17:47:00,
2013-05-13 14:02:00,40.2,26.0,29.94,NW,317,7.0,13.0,57,0.00,,,0.00,577,weatherlink.com 1.10,2013-05-13 18:02:00,
2013-05-13 14:16:00,40.6,25.0,29.94,WNW,303,4.0,21.0,55,0.00,,,0.00,1116,weatherlink.com 1.10,2013-05-13 18:16:00,
2013-05-13 14:33:00,40.5,24.0,29.95,NW,304,6.0,14.0,53,0.00,,,0.00,392,weatherlink.com 1.10,2013-05-13 18:33:00,
2013-05-13 14:47:00,40.1,25.0,29.95,SSE,160,4.0,11.0,56,0.00,,,0.00,367,weatherlink.com 1.10,2013-05-13 18:47:00,
2013-05-13 15:02:00,42.2,28.0,29.95,South,186,1.0,11.0,58,0.00,,,0.00,1201,weatherlink.com 1.10,2013-05-13 19:02:00,
2013-05-13 15:16:00,41.2,26.0,29.94,SSE,150,1.0,12.0,56,0.00,,,0.00,341,weatherlink.com 1.10,2013-05-13 19:16:00,
2013-05-13 15:33:00,40.4,26.0,29.95,NW,322,7.0,18.0,57,0.00,,,0.00,345,weatherlink.com 1.10,2013-05-13 19:33:00,
2013-05-13 15:47:00,40.2,25.0,29.95,West,268,2.0,18.0,56,0.00,,,0.00,318,weatherlink.com 1.10,2013-05-13 19:47:00,
2013-05-13 16:02:00,39.3,26.0,29.94,WNW,303,5.0,13.0,59,0.00,,,0.00,265,weatherlink.com 1.10,2013-05-13 20:02:00,
2013-05-13 16:16:00,39.5,27.0,29.95,West,274,0.0,16.0,62,0.00,,,0.00,190,weatherlink.com 1.10,2013-05-13 20:16:00,
2013-05-13 16:33:00,39.1,27.0,29.94,ESE,117,3.0,12.0,62,0.00,,,0.00,244,weatherlink.com 1.10,2013-05-13 20:33:00,
2013-05-13 16:47:00,39.4,27.0,29.95,WSW,252,0.0,13.0,62,0.00,,,0.00,204,weatherlink.com 1.10,2013-05-13 20:47:00,
2013-05-13 17:02:00,39.2,26.0,29.94,SSE,148,6.0,12.0,60,0.00,,,0.00,183,weatherlink.com 1.10,2013-05-13 21:02:00,
2013-05-13 17:17:00,39.8,26.0,29.94,WNW,292,5.0,15.0,59,0.00,,,0.00,504,weatherlink.com 1.10,2013-05-13 21:17:00,
2013-05-13 17:32:00,40.0,26.0,29.95,West,277,8.0,14.0,57,0.00,,,0.00,174,weatherlink.com 1.10,2013-05-13 21:32:00,
2013-05-13 17:47:00,39.8,26.0,29.95,WNW,292,4.0,15.0,59,0.00,,,0.00,406,weatherlink.com 1.10,2013-05-13 21:47:00,
2013-05-13 18:02:00,40.1,27.0,29.95,SSW,202,4.0,14.0,60,0.00,,,0.00,315,weatherlink.com 1.10,2013-05-13 22:02:00,
2013-05-13 18:18:00,39.0,26.0,29.94,West,273,2.0,10.0,61,0.00,,,0.00,114,weatherlink.com 1.10,2013-05-13 22:18:00,
2013-05-13 18:33:00,38.4,27.0,29.95,WNW,300,0.0,11.0,63,0.00,,,0.00,56,weatherlink.com 1.10,2013-05-13 22:33:00,
2013-05-13 18:48:00,37.6,27.0,29.95,South,187,1.0,11.0,66,0.00,,,0.00,72,weatherlink.com 1.10,2013-05-13 22:48:00,
2013-05-13 19:03:00,37.2,27.0,29.96,WNW,294,4.0,8.0,67,0.00,,,0.00,26,weatherlink.com 1.10,2013-05-13 23:03:00,
2013-05-13 19:18:00,36.8,27.0,29.96,West,261,0.0,10.0,68,0.00,,,0.00,37,weatherlink.com 1.10,2013-05-13 23:18:00,
2013-05-13 19:49:00,36.7,27.0,29.97,NNW,336,0.0,8.0,69,0.00,,,0.00,11,weatherlink.com 1.10,2013-05-13 23:49:00,
2013-05-13 20:03:00,36.3,27.0,29.97,North,360,0.0,6.0,69,0.00,,,0.00,0,weatherlink.com 1.10,2013-05-14 00:03:00,
2013-05-13 20:18:00,35.7,27.0,29.97,North,9,0.0,5.0,70,0.00,,,0.00,0,weatherlink.com 1.10,2013-05-14 00:18:00,
2013-05-13 20:33:00,35.2,27.0,29.98,NNW,335,0.0,5.0,72,0.00,,,0.00,0,weatherlink.com 1.10,2013-05-14 00:33:00,
2013-05-13 20:49:00,34.8,27.0,29.98,NNW,329,0.0,4.0,72,0.00,,,0.00,0,weatherlink.com 1.10,2013-05-14 00:49:00,
2013-05-13 21:04:00,34.6,27.0,29.99,WNW,293,0.0,5.0,73,0.00,,,0.00,0,weatherlink.com 1.10,2013-05-14 01:04:00,
2013-05-13 21:19:00,34.8,27.0,30.00,West,281,0.0,1.0,73,0.00,,,0.00,0,weatherlink.com 1.10,2013-05-14 01:19:00,
2013-05-13 21:34:00,35.6,28.0,30.01,West,272,0.0,5.0,73,0.00,,,0.00,0,weatherlink.com 1.10,2013-05-14 01:34:00,
2013-05-13 21:49:00,35.9,27.0,30.01,SW,223,0.0,5.0,71,0.00,,,0.00,0,weatherlink.com 1.10,2013-05-14 01:49:00,
2013-05-13 22:04:00,36.2,27.0,30.02,WNW,285,0.0,7.0,69,0.00,,,0.00,0,weatherlink.com 1.10,2013-05-14 02:04:00,
2013-05-13 22:19:00,36.3,27.0,30.03,WNW,294,0.0,5.0,70,0.00,,,0.00,0,weatherlink.com 1.10,2013-05-14 02:19:00,
2013-05-13 22:34:00,36.3,28.0,30.03,WNW,303,0.0,6.0,71,0.00,,,0.00,0,weatherlink.com 1.10,2013-05-14 02:34:00,
2013-05-13 22:49:00,36.5,27.0,30.04,NW,317,0.0,5.0,69,0.00,,,0.00,0,weatherlink.com 1.10,2013-05-14 02:49:00,
2013-05-13 23:04:00,36.5,28.0,30.03,WNW,297,0.0,7.0,70,0.00,,,0.00,0,weatherlink.com 1.10,2013-05-14 03:04:00,
2013-05-13 23:19:00,36.8,26.0,30.02,NW,316,2.0,10.0,65,0.00,,,0.00,0,weatherlink.com 1.10,2013-05-14 03:19:00,
2013-05-13 23:34:00,36.7,27.0,30.02,WNW,298,0.0,7.0,67,0.00,,,0.00,0,weatherlink.com 1.10,2013-05-14 03:34:00,
2013-05-13 23:49:00,36.6,27.0,30.02,SW,227,2.0,8.0,67,0.00,,,0.00,0,weatherlink.com 1.10,2013-05-14 03:49:00,